Clementsville, Idaho
Current Conditions -  °F | °C
As of 6:53 AM on Monday 24 Nov 2014 (Local Time) from KRXE Reporting Station
Clear Clear  
Wind Chill: 15°   Ceiling: Unl
Heat Index: 24°   Visibility: 10mi
Dew Point: 21°   Wind: 8mph
Humidity: 88%   Direction: 190°S
Pressure: 30.17"   Gusts: NA
Location:  43.8021°N, 111.594°W
Report Text: KRXE 241353Z AUTO 19007KT 10SM CLR M04/M06 A3017 RMK AO2 SLP248 T10441061
Loading
Personal Weather Stations






























Interactive Weather Map New forecast layout! Learn more

10-Day Weather Forecast

Advertisements
Track Severe Weather on mobile